sensor_id;sensor_type;location;lat;lon;timestamp;temperature;humidity
1686;DHT22;840;47.980;7.830;2023-05-03T00:02:07;12.40;99.90
1686;DHT22;840;47.980;7.830;2023-05-03T00:04:34;12.40;99.90
1686;DHT22;840;47.980;7.830;2023-05-03T00:07:01;12.40;99.90
1686;DHT22;840;47.980;7.830;2023-05-03T00:09:32;12.50;99.90
1686;DHT22;840;47.980;7.830;2023-05-03T00:11:59;12.50;99.90
1686;DHT22;840;47.980;7.830;2023-05-03T00:14:26;12.50;99.90
1686;DHT22;840;47.980;7.830;2023-05-03T00:16:53;12.40;99.90
1686;DHT22;840;47.980;7.830;2023-05-03T00:19:21;12.40;99.90
1686;DHT22;840;47.980;7.830;2023-05-03T00:21:51;12.40;99.90
1686;DHT22;840;47.980;7.830;2023-05-03T00:24:18;12.40;99.90
1686;DHT22;840;47.980;7.830;2023-05-03T00:26:45;12.40;99.90
1686;DHT22;840;47.980;7.830;2023-05-03T00:29:12;12.30;99.90
1686;DHT22;840;47.980;7.830;2023-05-03T00:31:39;12.20;99.90
1686;DHT22;840;47.980;7.830;2023-05-03T00:34:06;12.30;99.90
1686;DHT22;840;47.980;7.830;2023-05-03T00:36:35;12.20;99.90
1686;DHT22;840;47.980;7.830;2023-05-03T00:39:01;12.20;99.90
1686;DHT22;840;47.980;7.830;2023-05-03T00:41:28;12.20;99.90
1686;DHT22;840;47.980;7.830;2023-05-03T00:43:55;12.10;99.90
1686;DHT22;840;47.980;7.830;2023-05-03T00:46:22;12.10;99.90
1686;DHT22;840;47.980;7.830;2023-05-03T00:48:48;12.00;99.90
1686;DHT22;840;47.980;7.830;2023-05-03T00:51:17;12.00;99.90
1686;DHT22;840;47.980;7.830;2023-05-03T00:53:46;12.10;99.90
1686;DHT22;840;47.980;7.830;2023-05-03T00:56:16;12.10;99.90
1686;DHT22;840;47.980;7.830;2023-05-03T00:58:45;12.10;99.90
1686;DHT22;840;47.980;7.830;2023-05-03T01:01:12;12.10;99.90
1686;DHT22;840;47.980;7.830;2023-05-03T01:03:39;12.10;99.90
1686;DHT22;840;47.980;7.830;2023-05-03T01:06:12;12.10;99.90
1686;DHT22;840;47.980;7.830;2023-05-03T01:08:46;12.10;99.90
1686;DHT22;840;47.980;7.830;2023-05-03T01:11:20;12.10;99.90
1686;DHT22;840;47.980;7.830;2023-05-03T01:13:54;12.10;99.90
1686;DHT22;840;47.980;7.830;2023-05-03T01:16:25;11.90;99.90
1686;DHT22;840;47.980;7.830;2023-05-03T01:18:56;11.80;99.90
1686;DHT22;840;47.980;7.830;2023-05-03T01:21:26;11.70;99.90
1686;DHT22;840;47.980;7.830;2023-05-03T01:24:03;11.60;99.90
1686;DHT22;840;47.980;7.830;2023-05-03T01:26:34;11.60;99.90
1686;DHT22;840;47.980;7.830;2023-05-03T01:29:02;11.60;99.90
1686;DHT22;840;47.980;7.830;2023-05-03T01:31:38;11.60;99.90
1686;DHT22;840;47.980;7.830;2023-05-03T01:34:17;11.60;99.90
1686;DHT22;840;47.980;7.830;2023-05-03T01:36:48;11.60;99.90
1686;DHT22;840;47.980;7.830;2023-05-03T01:39:18;11.70;99.90
1686;DHT22;840;47.980;7.830;2023-05-03T01:41:49;11.60;99.90
1686;DHT22;840;47.980;7.830;2023-05-03T01:44:16;11.60;99.90
1686;DHT22;840;47.980;7.830;2023-05-03T01:46:45;11.60;99.90
1686;DHT22;840;47.980;7.830;2023-05-03T01:49:12;11.60;99.90
1686;DHT22;840;47.980;7.830;2023-05-03T01:51:39;11.60;99.90
1686;DHT22;840;47.980;7.830;2023-05-03T01:54:06;11.60;99.90
1686;DHT22;840;47.980;7.830;2023-05-03T01:56:34;11.60;99.90
1686;DHT22;840;47.980;7.830;2023-05-03T01:59:03;11.50;99.90
1686;DHT22;840;47.980;7.830;2023-05-03T02:01:30;11.50;99.90
1686;DHT22;840;47.980;7.830;2023-05-03T02:03:57;11.50;99.90
1686;DHT22;840;47.980;7.830;2023-05-03T02:06:24;11.40;99.90
1686;DHT22;840;47.980;7.830;2023-05-03T02:08:51;11.40;99.90
1686;DHT22;840;47.980;7.830;2023-05-03T02:11:17;11.30;99.90
1686;DHT22;840;47.980;7.830;2023-05-03T02:13:44;11.30;99.90
1686;DHT22;840;47.980;7.830;2023-05-03T02:16:15;11.20;99.90
1686;DHT22;840;47.980;7.830;2023-05-03T02:18:41;11.10;99.90
1686;DHT22;840;47.980;7.830;2023-05-03T02:21:09;11.10;99.90
1686;DHT22;840;47.980;7.830;2023-05-03T02:23:36;11.10;99.90
1686;DHT22;840;47.980;7.830;2023-05-03T02:26:03;11.00;99.90
1686;DHT22;840;47.980;7.830;2023-05-03T02:28:31;11.00;99.90
1686;DHT22;840;47.980;7.830;2023-05-03T02:30:58;11.00;99.90
1686;DHT22;840;47.980;7.830;2023-05-03T02:33:27;10.90;99.90
1686;DHT22;840;47.980;7.830;2023-05-03T02:35:54;10.90;99.90
1686;DHT22;840;47.980;7.830;2023-05-03T02:38:21;10.80;99.90
1686;DHT22;840;47.980;7.830;2023-05-03T02:40:48;10.80;99.90
1686;DHT22;840;47.980;7.830;2023-05-03T02:43:15;10.70;99.90
1686;DHT22;840;47.980;7.830;2023-05-03T02:45:42;10.70;99.90
1686;DHT22;840;47.980;7.830;2023-05-03T02:48:08;10.80;99.90
1686;DHT22;840;47.980;7.830;2023-05-03T02:50:37;10.70;99.90
1686;DHT22;840;47.980;7.830;2023-05-03T02:53:04;10.70;99.90
1686;DHT22;840;47.980;7.830;2023-05-03T02:55:32;10.70;99.90
1686;DHT22;840;47.980;7.830;2023-05-03T02:57:59;10.70;99.90
1686;DHT22;840;47.980;7.830;2023-05-03T03:00:26;10.70;99.90
1686;DHT22;840;47.980;7.830;2023-05-03T03:02:53;10.70;99.90
1686;DHT22;840;47.980;7.830;2023-05-03T03:05:20;10.60;99.90
1686;DHT22;840;47.980;7.830;2023-05-03T03:07:49;10.60;99.90
1686;DHT22;840;47.980;7.830;2023-05-03T03:10:15;10.50;99.90
1686;DHT22;840;47.980;7.830;2023-05-03T03:12:42;10.50;99.90
1686;DHT22;840;47.980;7.830;2023-05-03T03:15:10;10.40;99.90
1686;DHT22;840;47.980;7.830;2023-05-03T03:17:37;10.40;99.90
1686;DHT22;840;47.980;7.830;2023-05-03T03:20:05;10.40;99.90
1686;DHT22;840;47.980;7.830;2023-05-03T03:22:33;10.40;99.90
1686;DHT22;840;47.980;7.830;2023-05-03T03:25:02;10.30;99.90
1686;DHT22;840;47.980;7.830;2023-05-03T03:27:30;10.30;99.90
1686;DHT22;840;47.980;7.830;2023-05-03T03:29:58;10.30;99.90
1686;DHT22;840;47.980;7.830;2023-05-03T03:32:24;10.30;99.90
1686;DHT22;840;47.980;7.830;2023-05-03T03:34:52;10.30;99.90
1686;DHT22;840;47.980;7.830;2023-05-03T03:37:18;10.30;99.90
1686;DHT22;840;47.980;7.830;2023-05-03T03:39:47;10.30;99.90
1686;DHT22;840;47.980;7.830;2023-05-03T03:42:15;10.20;99.90
1686;DHT22;840;47.980;7.830;2023-05-03T03:44:43;10.20;99.90
1686;DHT22;840;47.980;7.830;2023-05-03T03:47:10;10.20;99.90
1686;DHT22;840;47.980;7.830;2023-05-03T03:49:37;10.10;99.90
1686;DHT22;840;47.980;7.830;2023-05-03T03:52:04;10.20;99.90
1686;DHT22;840;47.980;7.830;2023-05-03T03:54:31;10.20;99.90
1686;DHT22;840;47.980;7.830;2023-05-03T03:56:59;10.20;99.90
1686;DHT22;840;47.980;7.830;2023-05-03T03:59:29;10.20;99.90
1686;DHT22;840;47.980;7.830;2023-05-03T04:01:56;10.30;99.90
1686;DHT22;840;47.980;7.830;2023-05-03T04:04:23;10.30;99.90
1686;DHT22;840;47.980;7.830;2023-05-03T04:06:50;10.30;99.90
1686;DHT22;840;47.980;7.830;2023-05-03T04:09:17;10.30;99.90
1686;DHT22;840;47.980;7.830;2023-05-03T04:11:44;10.20;99.90
1686;DHT22;840;47.980;7.830;2023-05-03T04:14:11;10.20;99.90
1686;DHT22;840;47.980;7.830;2023-05-03T04:16:39;10.20;99.90
1686;DHT22;840;47.980;7.830;2023-05-03T04:19:06;10.10;99.90
1686;DHT22;840;47.980;7.830;2023-05-03T04:21:33;10.10;99.90
1686;DHT22;840;47.980;7.830;2023-05-03T04:24:01;10.10;99.90
1686;DHT22;840;47.980;7.830;2023-05-03T04:26:29;10.10;99.90
1686;DHT22;840;47.980;7.830;2023-05-03T04:28:55;10.10;99.90
1686;DHT22;840;47.980;7.830;2023-05-03T04:31:23;10.10;99.90
1686;DHT22;840;47.980;7.830;2023-05-03T04:33:52;10.10;99.90
1686;DHT22;840;47.980;7.830;2023-05-03T04:36:19;10.10;99.90
1686;DHT22;840;47.980;7.830;2023-05-03T04:38:49;10.20;99.90
1686;DHT22;840;47.980;7.830;2023-05-03T04:41:16;10.20;99.90
1686;DHT22;840;47.980;7.830;2023-05-03T04:43:43;10.20;99.90
1686;DHT22;840;47.980;7.830;2023-05-03T04:46:10;10.20;99.90
1686;DHT22;840;47.980;7.830;2023-05-03T04:48:37;10.20;99.90
1686;DHT22;840;47.980;7.830;2023-05-03T04:51:05;10.20;99.90
1686;DHT22;840;47.980;7.830;2023-05-03T04:53:32;10.20;99.90
1686;DHT22;840;47.980;7.830;2023-05-03T04:55:59;10.20;99.90
1686;DHT22;840;47.980;7.830;2023-05-03T04:58:26;10.20;99.90
1686;DHT22;840;47.980;7.830;2023-05-03T05:00:53;10.20;99.90
1686;DHT22;840;47.980;7.830;2023-05-03T05:03:20;10.20;99.90
1686;DHT22;840;47.980;7.830;2023-05-03T05:05:47;10.20;99.90
1686;DHT22;840;47.980;7.830;2023-05-03T05:08:15;10.20;99.90
1686;DHT22;840;47.980;7.830;2023-05-03T05:10:42;10.20;99.90
1686;DHT22;840;47.980;7.830;2023-05-03T05:13:09;10.20;99.90
1686;DHT22;840;47.980;7.830;2023-05-03T05:15:36;10.20;99.90
1686;DHT22;840;47.980;7.830;2023-05-03T05:18:03;10.20;99.90
1686;DHT22;840;47.980;7.830;2023-05-03T05:20:30;10.20;99.90
1686;DHT22;840;47.980;7.830;2023-05-03T05:22:57;10.10;99.90
1686;DHT22;840;47.980;7.830;2023-05-03T05:25:25;9.90;99.90
1686;DHT22;840;47.980;7.830;2023-05-03T05:27:52;9.80;99.90
1686;DHT22;840;47.980;7.830;2023-05-03T05:30:19;9.70;99.90
1686;DHT22;840;47.980;7.830;2023-05-03T05:32:47;9.50;99.90
1686;DHT22;840;47.980;7.830;2023-05-03T05:35:14;9.40;99.90
1686;DHT22;840;47.980;7.830;2023-05-03T05:37:43;9.30;99.90
1686;DHT22;840;47.980;7.830;2023-05-03T05:40:11;9.30;99.90
1686;DHT22;840;47.980;7.830;2023-05-03T05:42:40;9.20;99.90
1686;DHT22;840;47.980;7.830;2023-05-03T05:45:08;9.30;99.90
1686;DHT22;840;47.980;7.830;2023-05-03T05:47:35;9.30;99.90
1686;DHT22;840;47.980;7.830;2023-05-03T05:50:02;9.40;99.90
1686;DHT22;840;47.980;7.830;2023-05-03T05:52:30;9.40;99.90
1686;DHT22;840;47.980;7.830;2023-05-03T05:54:56;9.40;99.90
1686;DHT22;840;47.980;7.830;2023-05-03T05:57:23;9.40;99.90
1686;DHT22;840;47.980;7.830;2023-05-03T05:59:51;9.40;99.90
1686;DHT22;840;47.980;7.830;2023-05-03T06:02:18;9.50;99.90
1686;DHT22;840;47.980;7.830;2023-05-03T06:04:49;9.60;99.90
1686;DHT22;840;47.980;7.830;2023-05-03T06:07:16;9.70;99.90
1686;DHT22;840;47.980;7.830;2023-05-03T06:09:43;9.60;99.90
1686;DHT22;840;47.980;7.830;2023-05-03T06:12:10;9.70;99.90
1686;DHT22;840;47.980;7.830;2023-05-03T06:14:36;9.70;99.90
1686;DHT22;840;47.980;7.830;2023-05-03T06:17:04;9.60;99.90
1686;DHT22;840;47.980;7.830;2023-05-03T06:19:32;9.70;99.90
1686;DHT22;840;47.980;7.830;2023-05-03T06:21:58;9.80;99.90
1686;DHT22;840;47.980;7.830;2023-05-03T06:24:25;9.70;99.90
1686;DHT22;840;47.980;7.830;2023-05-03T06:26:55;9.70;99.90
1686;DHT22;840;47.980;7.830;2023-05-03T06:29:23;9.70;99.90
1686;DHT22;840;47.980;7.830;2023-05-03T06:31:50;9.80;99.90
1686;DHT22;840;47.980;7.830;2023-05-03T06:34:19;10.00;99.90
1686;DHT22;840;47.980;7.830;2023-05-03T06:36:46;10.10;99.90
1686;DHT22;840;47.980;7.830;2023-05-03T06:39:13;10.10;99.90
1686;DHT22;840;47.980;7.830;2023-05-03T06:41:40;10.20;99.90
1686;DHT22;840;47.980;7.830;2023-05-03T06:44:07;10.20;99.90
1686;DHT22;840;47.980;7.830;2023-05-03T06:46:33;10.20;99.90
1686;DHT22;840;47.980;7.830;2023-05-03T06:49:00;10.20;99.90
1686;DHT22;840;47.980;7.830;2023-05-03T06:51:29;10.20;99.90
1686;DHT22;840;47.980;7.830;2023-05-03T06:53:59;10.30;99.90
1686;DHT22;840;47.980;7.830;2023-05-03T06:56:31;10.40;99.90
1686;DHT22;840;47.980;7.830;2023-05-03T06:58:58;10.50;99.90
1686;DHT22;840;47.980;7.830;2023-05-03T07:01:25;10.60;99.90
1686;DHT22;840;47.980;7.830;2023-05-03T07:03:51;10.70;99.90
1686;DHT22;840;47.980;7.830;2023-05-03T07:06:18;10.80;99.90
1686;DHT22;840;47.980;7.830;2023-05-03T07:08:49;11.00;99.90
1686;DHT22;840;47.980;7.830;2023-05-03T07:11:15;11.10;99.90
1686;DHT22;840;47.980;7.830;2023-05-03T07:13:42;11.20;99.90
1686;DHT22;840;47.980;7.830;2023-05-03T07:16:09;11.20;99.90
1686;DHT22;840;47.980;7.830;2023-05-03T07:18:36;11.40;99.90
1686;DHT22;840;47.980;7.830;2023-05-03T07:21:03;11.50;99.90
1686;DHT22;840;47.980;7.830;2023-05-03T07:23:31;11.60;99.90
1686;DHT22;840;47.980;7.830;2023-05-03T07:25:59;11.60;99.90
1686;DHT22;840;47.980;7.830;2023-05-03T07:28:26;11.60;99.90
1686;DHT22;840;47.980;7.830;2023-05-03T07:30:53;11.70;99.90
1686;DHT22;840;47.980;7.830;2023-05-03T07:33:19;11.70;99.90
1686;DHT22;840;47.980;7.830;2023-05-03T07:35:46;11.60;99.90
1686;DHT22;840;47.980;7.830;2023-05-03T07:38:13;11.60;99.90
1686;DHT22;840;47.980;7.830;2023-05-03T07:40:40;11.70;99.90
1686;DHT22;840;47.980;7.830;2023-05-03T07:43:08;11.70;99.90
1686;DHT22;840;47.980;7.830;2023-05-03T07:45:35;11.80;99.90
1686;DHT22;840;47.980;7.830;2023-05-03T07:48:02;11.80;99.90
1686;DHT22;840;47.980;7.830;2023-05-03T07:50:29;11.90;99.90
1686;DHT22;840;47.980;7.830;2023-05-03T07:52:56;12.00;99.90
1686;DHT22;840;47.980;7.830;2023-05-03T07:55:23;12.00;99.90
1686;DHT22;840;47.980;7.830;2023-05-03T07:57:51;12.10;99.90
1686;DHT22;840;47.980;7.830;2023-05-03T08:00:24;12.20;99.90
1686;DHT22;840;47.980;7.830;2023-05-03T08:02:51;12.30;99.90
1686;DHT22;840;47.980;7.830;2023-05-03T08:05:18;12.40;99.90
1686;DHT22;840;47.980;7.830;2023-05-03T08:07:45;12.30;99.90
1686;DHT22;840;47.980;7.830;2023-05-03T08:10:13;12.40;99.90
1686;DHT22;840;47.980;7.830;2023-05-03T08:12:40;12.50;99.90
1686;DHT22;840;47.980;7.830;2023-05-03T08:15:09;12.50;99.90
1686;DHT22;840;47.980;7.830;2023-05-03T08:17:44;12.60;99.90
1686;DHT22;840;47.980;7.830;2023-05-03T08:20:12;12.70;99.90
1686;DHT22;840;47.980;7.830;2023-05-03T08:22:41;12.60;99.90
1686;DHT22;840;47.980;7.830;2023-05-03T08:25:10;12.70;99.90
1686;DHT22;840;47.980;7.830;2023-05-03T08:27:37;12.70;99.90
1686;DHT22;840;47.980;7.830;2023-05-03T08:30:05;12.80;99.90
1686;DHT22;840;47.980;7.830;2023-05-03T08:32:32;12.90;99.90
1686;DHT22;840;47.980;7.830;2023-05-03T08:35:01;13.00;99.90
1686;DHT22;840;47.980;7.830;2023-05-03T08:37:36;13.10;99.90
1686;DHT22;840;47.980;7.830;2023-05-03T08:40:05;13.20;99.90
1686;DHT22;840;47.980;7.830;2023-05-03T08:42:38;13.30;99.90
1686;DHT22;840;47.980;7.830;2023-05-03T08:45:09;13.40;99.90
1686;DHT22;840;47.980;7.830;2023-05-03T08:47:37;13.50;99.90
1686;DHT22;840;47.980;7.830;2023-05-03T08:50:08;13.50;99.90
1686;DHT22;840;47.980;7.830;2023-05-03T08:52:35;13.50;99.90
1686;DHT22;840;47.980;7.830;2023-05-03T08:55:03;13.50;99.90
1686;DHT22;840;47.980;7.830;2023-05-03T08:57:32;13.60;99.90
1686;DHT22;840;47.980;7.830;2023-05-03T09:00:00;13.70;99.90
1686;DHT22;840;47.980;7.830;2023-05-03T09:02:27;13.80;99.90
1686;DHT22;840;47.980;7.830;2023-05-03T09:04:54;13.80;99.90
1686;DHT22;840;47.980;7.830;2023-05-03T09:07:25;13.90;99.90
1686;DHT22;840;47.980;7.830;2023-05-03T09:09:52;13.90;99.90
1686;DHT22;840;47.980;7.830;2023-05-03T09:12:34;13.90;99.90
1686;DHT22;840;47.980;7.830;2023-05-03T09:15:03;13.90;99.90
1686;DHT22;840;47.980;7.830;2023-05-03T09:17:31;14.00;99.90
1686;DHT22;840;47.980;7.830;2023-05-03T09:19:59;14.10;99.90
1686;DHT22;840;47.980;7.830;2023-05-03T09:22:30;14.20;99.90
1686;DHT22;840;47.980;7.830;2023-05-03T09:24:59;14.20;99.90
1686;DHT22;840;47.980;7.830;2023-05-03T09:27:26;14.30;99.90
1686;DHT22;840;47.980;7.830;2023-05-03T09:29:53;14.40;99.90
1686;DHT22;840;47.980;7.830;2023-05-03T09:32:20;14.50;99.90
1686;DHT22;840;47.980;7.830;2023-05-03T09:34:48;14.60;99.90
1686;DHT22;840;47.980;7.830;2023-05-03T09:37:15;14.70;99.90
1686;DHT22;840;47.980;7.830;2023-05-03T09:39:45;14.80;99.90
1686;DHT22;840;47.980;7.830;2023-05-03T09:42:14;15.00;99.90
1686;DHT22;840;47.980;7.830;2023-05-03T09:44:42;15.00;99.90
1686;DHT22;840;47.980;7.830;2023-05-03T09:47:10;15.10;99.90
1686;DHT22;840;47.980;7.830;2023-05-03T09:49:37;15.10;99.90
1686;DHT22;840;47.980;7.830;2023-05-03T09:52:05;15.00;99.90
1686;DHT22;840;47.980;7.830;2023-05-03T09:54:33;15.00;99.90
1686;DHT22;840;47.980;7.830;2023-05-03T09:57:03;15.10;99.90
1686;DHT22;840;47.980;7.830;2023-05-03T09:59:30;15.20;99.90
1686;DHT22;840;47.980;7.830;2023-05-03T10:01:58;15.30;99.90
1686;DHT22;840;47.980;7.830;2023-05-03T10:04:27;15.40;99.90
1686;DHT22;840;47.980;7.830;2023-05-03T10:06:58;15.50;99.90
1686;DHT22;840;47.980;7.830;2023-05-03T10:09:32;15.50;99.90
1686;DHT22;840;47.980;7.830;2023-05-03T10:12:03;15.60;99.90
1686;DHT22;840;47.980;7.830;2023-05-03T10:14:30;15.60;99.90
1686;DHT22;840;47.980;7.830;2023-05-03T10:17:00;15.70;99.90
1686;DHT22;840;47.980;7.830;2023-05-03T10:19:32;15.70;99.90
1686;DHT22;840;47.980;7.830;2023-05-03T10:22:03;15.80;99.90
1686;DHT22;840;47.980;7.830;2023-05-03T10:24:31;15.90;99.90
1686;DHT22;840;47.980;7.830;2023-05-03T10:26:58;16.00;99.90
1686;DHT22;840;47.980;7.830;2023-05-03T10:29:47;16.10;99.90
1686;DHT22;840;47.980;7.830;2023-05-03T10:32:33;16.20;99.90
1686;DHT22;840;47.980;7.830;2023-05-03T10:35:02;16.30;99.90
1686;DHT22;840;47.980;7.830;2023-05-03T10:37:31;16.40;99.90
1686;DHT22;840;47.980;7.830;2023-05-03T10:40:05;16.40;99.90
1686;DHT22;840;47.980;7.830;2023-05-03T10:42:35;16.50;99.90
1686;DHT22;840;47.980;7.830;2023-05-03T10:45:06;16.70;99.90
1686;DHT22;840;47.980;7.830;2023-05-03T10:47:34;16.70;99.90
1686;DHT22;840;47.980;7.830;2023-05-03T10:50:23;16.80;99.90
1686;DHT22;840;47.980;7.830;2023-05-03T10:52:50;16.90;99.90
1686;DHT22;840;47.980;7.830;2023-05-03T10:55:18;17.00;99.90
1686;DHT22;840;47.980;7.830;2023-05-03T10:57:47;17.10;99.90
1686;DHT22;840;47.980;7.830;2023-05-03T11:00:27;17.20;99.90
1686;DHT22;840;47.980;7.830;2023-05-03T11:03:25;17.30;99.90
1686;DHT22;840;47.980;7.830;2023-05-03T11:05:56;17.40;99.90
1686;DHT22;840;47.980;7.830;2023-05-03T11:08:24;17.50;99.90
1686;DHT22;840;47.980;7.830;2023-05-03T11:10:56;17.60;99.90
1686;DHT22;840;47.980;7.830;2023-05-03T11:13:24;17.60;99.90
1686;DHT22;840;47.980;7.830;2023-05-03T11:15:53;17.70;99.90
1686;DHT22;840;47.980;7.830;2023-05-03T11:18:21;17.80;99.90
1686;DHT22;840;47.980;7.830;2023-05-03T11:20:48;17.80;99.90
1686;DHT22;840;47.980;7.830;2023-05-03T11:23:18;17.90;99.90
1686;DHT22;840;47.980;7.830;2023-05-03T11:25:45;18.10;99.90
1686;DHT22;840;47.980;7.830;2023-05-03T11:28:13;18.10;99.90
1686;DHT22;840;47.980;7.830;2023-05-03T11:30:40;18.20;99.90
1686;DHT22;840;47.980;7.830;2023-05-03T11:33:08;18.30;99.90
1686;DHT22;840;47.980;7.830;2023-05-03T11:35:35;18.40;99.90
1686;DHT22;840;47.980;7.830;2023-05-03T11:38:03;18.60;99.90
1686;DHT22;840;47.980;7.830;2023-05-03T11:40:30;18.70;99.90
1686;DHT22;840;47.980;7.830;2023-05-03T11:42:58;18.70;99.90
1686;DHT22;840;47.980;7.830;2023-05-03T11:45:27;18.80;99.90
1686;DHT22;840;47.980;7.830;2023-05-03T11:47:55;19.00;99.90
1686;DHT22;840;47.980;7.830;2023-05-03T11:50:45;19.00;99.90
1686;DHT22;840;47.980;7.830;2023-05-03T11:53:13;18.90;99.90
1686;DHT22;840;47.980;7.830;2023-05-03T11:55:42;19.00;99.90
1686;DHT22;840;47.980;7.830;2023-05-03T11:58:12;19.20;99.90
1686;DHT22;840;47.980;7.830;2023-05-03T12:00:42;19.20;99.90
1686;DHT22;840;47.980;7.830;2023-05-03T12:03:10;19.30;99.90
1686;DHT22;840;47.980;7.830;2023-05-03T12:05:42;19.30;99.90
1686;DHT22;840;47.980;7.830;2023-05-03T12:08:10;19.40;99.90
1686;DHT22;840;47.980;7.830;2023-05-03T12:10:38;19.30;99.90
1686;DHT22;840;47.980;7.830;2023-05-03T12:13:04;19.30;99.90
1686;DHT22;840;47.980;7.830;2023-05-03T12:15:33;19.40;99.90
1686;DHT22;840;47.980;7.830;2023-05-03T12:18:02;19.40;99.90
1686;DHT22;840;47.980;7.830;2023-05-03T12:20:30;19.50;99.90
1686;DHT22;840;47.980;7.830;2023-05-03T12:22:58;19.70;99.90
1686;DHT22;840;47.980;7.830;2023-05-03T12:25:28;19.70;99.90
1686;DHT22;840;47.980;7.830;2023-05-03T12:27:58;19.80;99.90
1686;DHT22;840;47.980;7.830;2023-05-03T12:30:25;20.00;99.90
1686;DHT22;840;47.980;7.830;2023-05-03T12:32:52;20.40;99.90
1686;DHT22;840;47.980;7.830;2023-05-03T12:35:20;20.90;99.90
1686;DHT22;840;47.980;7.830;2023-05-03T12:37:47;21.50;96.50
1686;DHT22;840;47.980;7.830;2023-05-03T12:40:16;22.30;93.50
1686;DHT22;840;47.980;7.830;2023-05-03T12:42:45;22.80;90.40
1686;DHT22;840;47.980;7.830;2023-05-03T12:45:12;23.10;87.20
1686;DHT22;840;47.980;7.830;2023-05-03T12:47:39;23.40;89.90
1686;DHT22;840;47.980;7.830;2023-05-03T12:50:06;23.90;87.70
1686;DHT22;840;47.980;7.830;2023-05-03T12:52:35;24.40;81.80
1686;DHT22;840;47.980;7.830;2023-05-03T12:55:03;24.70;80.10
1686;DHT22;840;47.980;7.830;2023-05-03T12:57:30;24.90;77.30
1686;DHT22;840;47.980;7.830;2023-05-03T12:59:58;25.10;74.30
1686;DHT22;840;47.980;7.830;2023-05-03T13:02:26;25.30;74.30
1686;DHT22;840;47.980;7.830;2023-05-03T13:04:53;25.50;71.60
1686;DHT22;840;47.980;7.830;2023-05-03T13:07:21;25.70;67.30
1686;DHT22;840;47.980;7.830;2023-05-03T13:09:49;26.00;66.30
1686;DHT22;840;47.980;7.830;2023-05-03T13:12:16;26.20;66.30
1686;DHT22;840;47.980;7.830;2023-05-03T13:14:44;26.30;63.40
1686;DHT22;840;47.980;7.830;2023-05-03T13:17:16;26.30;64.80
1686;DHT22;840;47.980;7.830;2023-05-03T13:19:45;26.40;62.70
1686;DHT22;840;47.980;7.830;2023-05-03T13:22:12;26.70;64.20
1686;DHT22;840;47.980;7.830;2023-05-03T13:24:40;26.90;62.50
1686;DHT22;840;47.980;7.830;2023-05-03T13:27:07;27.00;63.60
1686;DHT22;840;47.980;7.830;2023-05-03T13:29:34;27.20;58.70
1686;DHT22;840;47.980;7.830;2023-05-03T13:32:02;27.10;59.80
1686;DHT22;840;47.980;7.830;2023-05-03T13:34:30;27.10;58.30
1686;DHT22;840;47.980;7.830;2023-05-03T13:36:57;26.90;57.80
1686;DHT22;840;47.980;7.830;2023-05-03T13:39:24;26.90;58.50
1686;DHT22;840;47.980;7.830;2023-05-03T13:41:51;26.90;58.50
1686;DHT22;840;47.980;7.830;2023-05-03T13:44:17;26.90;58.10
1686;DHT22;840;47.980;7.830;2023-05-03T13:46:45;26.70;59.00
1686;DHT22;840;47.980;7.830;2023-05-03T13:49:12;26.70;59.20
1686;DHT22;840;47.980;7.830;2023-05-03T13:51:40;26.60;59.10
1686;DHT22;840;47.980;7.830;2023-05-03T13:54:07;26.70;58.70
1686;DHT22;840;47.980;7.830;2023-05-03T13:56:34;26.60;57.30
1686;DHT22;840;47.980;7.830;2023-05-03T13:59:02;26.50;57.40
1686;DHT22;840;47.980;7.830;2023-05-03T14:01:29;26.40;56.80
1686;DHT22;840;47.980;7.830;2023-05-03T14:03:56;26.30;56.20
1686;DHT22;840;47.980;7.830;2023-05-03T14:06:23;26.20;57.30
1686;DHT22;840;47.980;7.830;2023-05-03T14:08:52;26.30;56.80
1686;DHT22;840;47.980;7.830;2023-05-03T14:11:21;26.40;55.00
1686;DHT22;840;47.980;7.830;2023-05-03T14:13:49;26.50;56.20
1686;DHT22;840;47.980;7.830;2023-05-03T14:16:18;26.80;58.60
1686;DHT22;840;47.980;7.830;2023-05-03T14:18:45;27.00;58.40
1686;DHT22;840;47.980;7.830;2023-05-03T14:21:12;27.20;56.10
1686;DHT22;840;47.980;7.830;2023-05-03T14:23:42;27.10;55.90
1686;DHT22;840;47.980;7.830;2023-05-03T14:26:11;27.10;54.70
1686;DHT22;840;47.980;7.830;2023-05-03T14:28:38;27.20;55.20
1686;DHT22;840;47.980;7.830;2023-05-03T14:31:06;27.30;55.50
1686;DHT22;840;47.980;7.830;2023-05-03T14:33:33;27.30;55.10
1686;DHT22;840;47.980;7.830;2023-05-03T14:36:01;27.40;55.20
1686;DHT22;840;47.980;7.830;2023-05-03T14:38:28;27.50;54.60
1686;DHT22;840;47.980;7.830;2023-05-03T14:40:55;27.60;53.80
1686;DHT22;840;47.980;7.830;2023-05-03T14:43:23;27.80;54.00
1686;DHT22;840;47.980;7.830;2023-05-03T14:45:50;28.00;53.80
1686;DHT22;840;47.980;7.830;2023-05-03T14:48:17;28.00;53.00
1686;DHT22;840;47.980;7.830;2023-05-03T14:50:47;27.90;52.20
1686;DHT22;840;47.980;7.830;2023-05-03T14:53:14;28.00;51.60
1686;DHT22;840;47.980;7.830;2023-05-03T14:55:41;28.10;52.50
1686;DHT22;840;47.980;7.830;2023-05-03T14:58:08;28.20;51.50
1686;DHT22;840;47.980;7.830;2023-05-03T15:00:39;28.20;51.10
1686;DHT22;840;47.980;7.830;2023-05-03T15:03:06;28.20;51.70
1686;DHT22;840;47.980;7.830;2023-05-03T15:05:41;28.50;51.10
1686;DHT22;840;47.980;7.830;2023-05-03T15:08:08;28.70;50.70
1686;DHT22;840;47.980;7.830;2023-05-03T15:10:37;28.70;49.70
1686;DHT22;840;47.980;7.830;2023-05-03T15:13:03;28.90;50.80
1686;DHT22;840;47.980;7.830;2023-05-03T15:15:30;28.90;48.30
1686;DHT22;840;47.980;7.830;2023-05-03T15:17:59;28.80;47.70
1686;DHT22;840;47.980;7.830;2023-05-03T15:20:26;28.80;48.30
1686;DHT22;840;47.980;7.830;2023-05-03T15:22:53;28.80;46.30
1686;DHT22;840;47.980;7.830;2023-05-03T15:25:20;28.70;47.30
1686;DHT22;840;47.980;7.830;2023-05-03T15:27:46;28.70;47.60
1686;DHT22;840;47.980;7.830;2023-05-03T15:30:14;28.80;47.20
1686;DHT22;840;47.980;7.830;2023-05-03T15:32:42;28.70;46.20
1686;DHT22;840;47.980;7.830;2023-05-03T15:35:10;28.70;46.80
1686;DHT22;840;47.980;7.830;2023-05-03T15:37:37;28.60;45.60
1686;DHT22;840;47.980;7.830;2023-05-03T15:40:06;28.50;46.30
1686;DHT22;840;47.980;7.830;2023-05-03T15:42:34;28.60;45.70
1686;DHT22;840;47.980;7.830;2023-05-03T15:45:01;28.40;45.10
1686;DHT22;840;47.980;7.830;2023-05-03T15:47:28;28.40;46.00
1686;DHT22;840;47.980;7.830;2023-05-03T15:49:56;28.50;45.00
1686;DHT22;840;47.980;7.830;2023-05-03T15:52:24;28.50;43.90
1686;DHT22;840;47.980;7.830;2023-05-03T15:54:51;28.30;44.00
1686;DHT22;840;47.980;7.830;2023-05-03T15:57:19;28.30;45.40
1686;DHT22;840;47.980;7.830;2023-05-03T15:59:45;28.30;44.70
1686;DHT22;840;47.980;7.830;2023-05-03T16:02:13;28.20;45.50
1686;DHT22;840;47.980;7.830;2023-05-03T16:04:39;28.20;45.60
1686;DHT22;840;47.980;7.830;2023-05-03T16:07:06;28.30;46.70
1686;DHT22;840;47.980;7.830;2023-05-03T16:09:34;28.40;45.40
1686;DHT22;840;47.980;7.830;2023-05-03T16:12:01;28.50;44.70
1686;DHT22;840;47.980;7.830;2023-05-03T16:14:28;28.40;44.70
1686;DHT22;840;47.980;7.830;2023-05-03T16:16:54;28.30;46.00
1686;DHT22;840;47.980;7.830;2023-05-03T16:19:21;28.30;46.20
1686;DHT22;840;47.980;7.830;2023-05-03T16:21:52;28.20;46.00
1686;DHT22;840;47.980;7.830;2023-05-03T16:24:20;28.00;46.50
1686;DHT22;840;47.980;7.830;2023-05-03T16:26:49;27.90;47.20